createdAt,value
2022-11-04T00:00:53.747Z,91.13
2022-11-04T00:03:29.835Z,91.01
2022-11-04T00:06:01.420Z,90.96
2022-11-04T00:08:29.809Z,90.86
2022-11-04T00:11:46.437Z,90.95
2022-11-04T00:14:22.732Z,91.03
2022-11-04T00:17:09.552Z,90.88
2022-11-04T00:20:17.183Z,90.80
2022-11-04T00:23:07.188Z,90.99
2022-11-04T00:25:52.828Z,90.72
2022-11-04T00:28:38.704Z,90.55
2022-11-04T00:31:25.491Z,89.99
2022-11-04T00:33:53.411Z,90.02
2022-11-04T00:36:20.686Z,89.63
2022-11-04T00:38:47.188Z,89.24
2022-11-04T00:41:26.236Z,89.13
2022-11-04T00:43:58.844Z,89.11
2022-11-04T00:46:26.507Z,88.93
2022-11-04T00:48:53.023Z,88.79
2022-11-04T00:51:21.278Z,88.84
2022-11-04T00:53:48.183Z,88.98
2022-11-04T00:56:14.589Z,88.68
2022-11-04T00:58:41.031Z,88.59
2022-11-04T01:01:11.837Z,88.58
2022-11-04T01:03:38.773Z,88.37
2022-11-04T01:06:05.346Z,88.29
2022-11-04T01:08:31.994Z,88.14
2022-11-04T01:11:02.147Z,88.25
2022-11-04T01:13:28.664Z,88.15
2022-11-04T01:15:58.423Z,88.02
2022-11-04T01:18:24.935Z,88.17
2022-11-04T01:20:51.332Z,88.45
2022-11-04T01:23:17.776Z,87.95
2022-11-04T01:25:45.880Z,88.57
2022-11-04T01:28:12.454Z,88.31
2022-11-04T01:30:39.263Z,88.34
2022-11-04T01:33:05.763Z,88.65
2022-11-04T01:35:32.509Z,88.72
2022-11-04T01:37:59.146Z,89.05
2022-11-04T01:40:25.558Z,88.94
2022-11-04T01:42:52.019Z,88.98
2022-11-04T01:45:20.116Z,88.92
2022-11-04T01:48:01.851Z,88.83
2022-11-04T01:50:30.679Z,88.92
2022-11-04T01:53:00.810Z,89.09
2022-11-04T01:55:30.149Z,89.00
2022-11-04T01:57:56.822Z,89.20
2022-11-04T02:00:23.287Z,88.98
2022-11-04T02:03:06.742Z,89.24
2022-11-04T02:05:33.476Z,88.86
2022-11-04T02:08:02.739Z,89.02
2022-11-04T02:10:29.861Z,88.91
2022-11-04T02:12:57.414Z,88.61
2022-11-04T02:15:56.200Z,88.32
2022-11-04T02:18:31.493Z,87.80
2022-11-04T02:20:58.109Z,87.81
2022-11-04T02:23:59.023Z,87.42
2022-11-04T02:26:52.569Z,87.34
2022-11-04T02:29:51.520Z,87.15
2022-11-04T02:32:39.091Z,86.98
2022-11-04T02:35:09.763Z,87.23
2022-11-04T02:37:50.414Z,87.03
2022-11-04T02:40:35.434Z,87.24
2022-11-04T02:43:25.503Z,86.98
2022-11-04T02:46:04.279Z,87.47
2022-11-04T02:48:47.004Z,87.63
2022-11-04T02:51:25.871Z,87.24
2022-11-04T02:53:54.577Z,87.20
2022-11-04T02:56:22.270Z,87.35
2022-11-04T02:59:02.677Z,87.52
2022-11-04T03:01:32.249Z,87.59
2022-11-04T03:04:09.097Z,87.62
2022-11-04T03:06:36.435Z,87.62
2022-11-04T03:09:04.200Z,87.32
2022-11-04T03:11:31.110Z,87.66
2022-11-04T03:14:01.497Z,87.72
2022-11-04T03:16:44.287Z,87.60
2022-11-04T03:19:40.094Z,87.38
2022-11-04T03:22:13.180Z,87.01
2022-11-04T03:24:39.946Z,87.14
2022-11-04T03:27:18.848Z,86.57
2022-11-04T03:30:09.357Z,86.65
2022-11-04T03:32:42.040Z,86.37
2022-11-04T03:35:09.162Z,86.27
2022-11-04T03:37:35.934Z,86.12
2022-11-04T03:40:02.942Z,85.64
2022-11-04T03:42:30.708Z,85.65
2022-11-04T03:44:57.508Z,85.46
2022-11-04T03:47:26.617Z,85.18
2022-11-04T03:50:05.605Z,84.94
2022-11-04T03:52:32.027Z,85.10
2022-11-04T03:54:58.544Z,84.47
2022-11-04T03:57:46.112Z,84.50
2022-11-04T04:00:14.405Z,84.22
2022-11-04T04:02:49.767Z,84.14
2022-11-04T04:05:30.396Z,83.83
2022-11-04T04:08:03.865Z,83.96
2022-11-04T04:10:39.557Z,84.07
2022-11-04T04:13:32.240Z,84.27
2022-11-04T04:16:10.826Z,84.11
2022-11-04T04:18:54.010Z,84.33
2022-11-04T04:21:29.479Z,84.49
2022-11-04T04:24:26.100Z,84.89
2022-11-04T04:27:11.699Z,84.77
2022-11-04T04:29:38.413Z,84.87
2022-11-04T04:32:05.491Z,84.83
2022-11-04T04:34:32.871Z,85.12
2022-11-04T04:37:08.603Z,84.99
2022-11-04T04:40:10.727Z,85.11
2022-11-04T04:42:56.826Z,84.90
2022-11-04T04:45:36.275Z,84.48
2022-11-04T04:48:03.304Z,84.42
2022-11-04T04:50:36.210Z,84.35
2022-11-04T04:53:04.124Z,84.16
2022-11-04T04:55:31.612Z,84.02
2022-11-04T04:57:58.680Z,84.02
2022-11-04T05:00:25.437Z,83.69
2022-11-04T05:02:51.855Z,83.49
2022-11-04T05:05:19.121Z,83.53
2022-11-04T05:07:45.526Z,83.12
2022-11-04T05:10:13.823Z,83.02
2022-11-04T05:12:59.478Z,83.01
2022-11-04T05:15:26.817Z,82.88
2022-11-04T05:17:57.608Z,82.78
2022-11-04T05:20:24.638Z,82.55
2022-11-04T05:22:51.293Z,82.55
2022-11-04T05:25:18.181Z,82.30
2022-11-04T05:27:44.610Z,82.50
2022-11-04T05:30:11.561Z,82.52
2022-11-04T05:32:38.155Z,82.20
2022-11-04T05:35:04.887Z,82.29
2022-11-04T05:37:31.318Z,81.84
2022-11-04T05:39:57.790Z,81.89
2022-11-04T05:42:24.233Z,82.21
2022-11-04T05:44:50.676Z,82.15
2022-11-04T05:47:17.090Z,82.07
2022-11-04T05:49:43.498Z,82.22
2022-11-04T05:52:10.179Z,81.96
2022-11-04T05:54:38.548Z,81.97
2022-11-04T05:57:05.408Z,81.87
2022-11-04T05:59:31.936Z,81.56
2022-11-04T06:01:58.572Z,81.71
2022-11-04T06:04:25.065Z,81.33
2022-11-04T06:06:51.523Z,81.62
2022-11-04T06:09:18.088Z,81.56
2022-11-04T06:11:45.278Z,81.14
2022-11-04T06:14:17.505Z,81.31
2022-11-04T06:16:45.091Z,81.18
2022-11-04T06:19:15.105Z,81.00
2022-11-04T06:21:42.714Z,80.72
2022-11-04T06:24:09.131Z,81.01
2022-11-04T06:26:35.556Z,81.02
2022-11-04T06:29:02.168Z,80.89
2022-11-04T06:31:28.599Z,80.93
2022-11-04T06:33:54.986Z,80.61
2022-11-04T06:36:21.517Z,80.69
2022-11-04T06:38:47.965Z,80.53
2022-11-04T06:41:16.614Z,80.59
2022-11-04T06:43:43.184Z,80.61
2022-11-04T06:46:29.192Z,80.55
2022-11-04T06:48:56.356Z,80.64
2022-11-04T06:51:23.568Z,80.79
2022-11-04T06:53:50.003Z,80.53
2022-11-04T06:56:16.519Z,80.57
2022-11-04T06:58:42.950Z,80.77
2022-11-04T07:01:15.915Z,80.70
2022-11-04T07:03:49.047Z,80.81
2022-11-04T07:06:15.431Z,80.84
2022-11-04T07:08:41.880Z,80.76
2022-11-04T07:11:08.306Z,80.83
2022-11-04T07:13:34.719Z,80.81
2022-11-04T07:16:04.529Z,80.95
2022-11-04T07:18:30.925Z,80.86
2022-11-04T07:20:58.347Z,80.81
2022-11-04T07:23:25.044Z,80.72
2022-11-04T07:25:51.447Z,80.80
2022-11-04T07:28:17.854Z,80.88
2022-11-04T07:30:44.225Z,80.63
2022-11-04T07:33:10.668Z,80.60
2022-11-04T07:35:37.222Z,80.60
2022-11-04T07:38:03.998Z,80.40
2022-11-04T07:40:34.259Z,80.36
2022-11-04T07:43:01.481Z,80.51
2022-11-04T07:45:36.102Z,80.25
2022-11-04T07:48:02.504Z,80.28
2022-11-04T07:50:28.945Z,80.37
2022-11-04T07:52:55.412Z,80.12
2022-11-04T07:55:22.022Z,80.04
2022-11-04T07:57:48.679Z,80.11
2022-11-04T08:00:16.415Z,80.10
2022-11-04T08:02:46.852Z,80.27
2022-11-04T08:05:14.474Z,80.12
2022-11-04T08:07:40.976Z,80.14
2022-11-04T08:10:08.065Z,80.14
2022-11-04T08:12:34.462Z,80.02
2022-11-04T08:15:00.854Z,79.91
2022-11-04T08:17:27.262Z,80.12
2022-11-04T08:19:53.649Z,79.89
2022-11-04T08:22:20.058Z,79.73
2022-11-04T08:24:47.233Z,80.00
2022-11-04T08:27:14.082Z,79.67
2022-11-04T08:29:40.512Z,79.07
2022-11-04T08:32:07.780Z,78.94
2022-11-04T08:34:34.442Z,78.93
2022-11-04T08:37:00.899Z,78.74
2022-11-04T08:39:27.282Z,78.62
2022-11-04T08:41:53.859Z,78.18
2022-11-04T08:44:20.557Z,77.93
2022-11-04T08:46:47.515Z,77.73
2022-11-04T08:49:19.637Z,77.76
2022-11-04T08:51:49.500Z,78.25
2022-11-04T08:54:16.100Z,77.92
2022-11-04T08:56:42.674Z,77.67
2022-11-04T08:59:10.516Z,77.70
2022-11-04T09:01:37.573Z,77.85
2022-11-04T09:04:05.531Z,77.71
2022-11-04T09:06:35.819Z,77.57
2022-11-04T09:09:04.615Z,77.28
2022-11-04T09:11:37.495Z,77.44
2022-11-04T09:14:04.275Z,77.34
2022-11-04T09:16:32.470Z,77.20
2022-11-04T09:18:59.397Z,77.19
2022-11-04T09:21:26.634Z,77.38
2022-11-04T09:23:53.490Z,77.35
2022-11-04T09:26:20.758Z,77.87
2022-11-04T09:28:47.146Z,77.91
2022-11-04T09:31:16.971Z,77.64
2022-11-04T09:33:43.854Z,77.46
2022-11-04T09:36:11.069Z,77.31
2022-11-04T09:38:38.921Z,77.38
2022-11-04T09:41:47.139Z,77.53
2022-11-04T09:44:22.755Z,77.51
2022-11-04T09:46:49.939Z,77.22
2022-11-04T09:49:19.217Z,77.23
2022-11-04T09:51:55.392Z,76.79
2022-11-04T09:54:26.541Z,76.90
2022-11-04T09:56:54.483Z,76.63
2022-11-04T09:59:25.921Z,76.54
2022-11-04T10:02:20.707Z,75.46
2022-11-04T10:04:53.019Z,75.25
2022-11-04T10:07:52.480Z,74.55
2022-11-04T10:10:25.623Z,74.40
2022-11-04T10:12:51.914Z,74.45
2022-11-04T10:15:29.682Z,74.44
2022-11-04T10:18:02.462Z,74.94
2022-11-04T10:20:50.097Z,74.65
2022-11-04T10:23:22.753Z,73.41
2022-11-04T10:26:01.209Z,73.38
2022-11-04T10:28:35.997Z,73.64
2022-11-04T10:31:03.911Z,73.70
2022-11-04T10:33:33.723Z,73.73
2022-11-04T10:36:03.427Z,73.96
2022-11-04T10:38:52.223Z,74.22
2022-11-04T10:41:26.343Z,74.15
2022-11-04T10:43:56.547Z,74.46
2022-11-04T10:46:44.333Z,74.30
2022-11-04T10:49:19.758Z,73.72
2022-11-04T10:51:46.160Z,73.86
2022-11-04T10:54:12.637Z,73.82
2022-11-04T10:56:45.286Z,73.11
2022-11-04T10:59:31.625Z,72.42
2022-11-04T11:02:00.208Z,73.06
2022-11-04T11:04:33.173Z,73.12
2022-11-04T11:07:02.167Z,73.36
2022-11-04T11:09:30.555Z,73.28
2022-11-04T11:12:02.194Z,72.41
2022-11-04T11:14:28.466Z,72.02
2022-11-04T11:16:55.732Z,71.60
2022-11-04T11:19:24.987Z,71.50
2022-11-04T11:21:54.409Z,71.49
2022-11-04T11:24:29.688Z,71.63
2022-11-04T11:26:57.636Z,71.35
2022-11-04T11:29:30.352Z,71.16
2022-11-04T11:31:57.976Z,71.15
2022-11-04T11:34:28.518Z,71.27
2022-11-04T11:36:56.490Z,71.30
2022-11-04T11:39:27.924Z,71.46
2022-11-04T11:42:00.784Z,72.10
2022-11-04T11:44:49.933Z,72.19
2022-11-04T11:47:23.199Z,72.31
2022-11-04T11:50:18.967Z,72.80
2022-11-04T11:52:46.607Z,73.00
2022-11-04T11:55:17.601Z,73.16
2022-11-04T12:01:16.580Z,72.68
2022-11-04T12:10:52.011Z,72.18
2022-11-04T12:13:30.560Z,72.41
2022-11-04T12:16:28.242Z,72.25
2022-11-04T12:19:00.681Z,71.78
2022-11-04T12:21:33.409Z,71.93
2022-11-04T12:24:07.724Z,72.17
2022-11-04T12:26:53.245Z,72.26
2022-11-04T12:29:50.334Z,71.96
2022-11-04T12:32:39.111Z,72.46
2022-11-04T12:35:29.092Z,72.49
2022-11-04T12:38:21.832Z,72.58
2022-11-04T12:41:27.671Z,72.60
2022-11-04T12:43:54.886Z,72.86
2022-11-04T12:46:47.397Z,73.46
2022-11-04T12:49:43.681Z,73.90
2022-11-04T12:53:15.702Z,73.93
2022-11-04T12:56:05.964Z,74.40
2022-11-04T12:58:48.768Z,74.66
2022-11-04T13:01:19.528Z,74.66
2022-11-04T13:03:52.517Z,74.85
2022-11-04T13:06:49.266Z,74.77
2022-11-04T13:09:39.347Z,74.90
2022-11-04T13:12:12.011Z,74.95
2022-11-04T13:14:52.595Z,75.07
2022-11-04T13:17:29.534Z,75.32
2022-11-04T13:19:59.078Z,75.45
2022-11-04T13:22:29.277Z,75.71
2022-11-04T13:25:00.293Z,75.86
2022-11-04T13:27:38.271Z,75.97
2022-11-04T13:30:27.606Z,76.12
2022-11-04T13:33:09.226Z,76.42
2022-11-04T13:36:01.877Z,76.58
2022-11-04T13:38:31.202Z,76.64
2022-11-04T13:41:11.403Z,77.11
2022-11-04T13:43:46.637Z,77.20
2022-11-04T13:46:12.908Z,76.96
2022-11-04T13:48:51.363Z,76.93
2022-11-04T13:51:19.113Z,77.10
2022-11-04T13:53:47.636Z,77.07
2022-11-04T13:56:34.300Z,76.71
2022-11-04T13:59:17.748Z,76.73
2022-11-04T14:01:44.282Z,76.67
2022-11-04T14:04:13.635Z,76.96
2022-11-04T14:06:59.072Z,76.86
2022-11-04T14:09:43.898Z,76.87
2022-11-04T14:12:10.200Z,76.80
2022-11-04T14:14:41.766Z,76.82
2022-11-04T14:17:46.468Z,76.57
2022-11-04T14:20:24.605Z,76.83
2022-11-04T14:22:56.231Z,76.86
2022-11-04T14:25:34.721Z,76.62
2022-11-04T14:28:15.855Z,76.97
2022-11-04T14:30:53.649Z,76.85
2022-11-04T14:33:31.398Z,76.96
2022-11-04T14:36:14.526Z,77.13
2022-11-04T14:38:41.357Z,77.24
2022-11-04T14:41:30.203Z,77.17
2022-11-04T14:44:00.800Z,77.09
2022-11-04T14:46:31.166Z,76.90
2022-11-04T14:49:01.031Z,76.90
2022-11-04T14:51:32.385Z,76.99
2022-11-04T14:54:08.302Z,76.87
2022-11-04T14:56:34.743Z,76.79
2022-11-04T14:59:06.795Z,77.25
2022-11-04T15:01:35.689Z,77.27
2022-11-04T15:04:14.722Z,77.39
2022-11-04T15:06:54.383Z,77.29
2022-11-04T15:09:41.129Z,77.43
2022-11-04T15:12:28.890Z,77.95
2022-11-04T15:14:55.886Z,78.16
2022-11-04T15:17:25.342Z,78.26
2022-11-04T15:19:54.386Z,78.42
2022-11-04T15:22:20.823Z,78.48
2022-11-04T15:24:47.331Z,78.50
2022-11-04T15:27:16.946Z,78.70
2022-11-04T15:29:54.621Z,78.77
2022-11-04T15:32:21.135Z,78.96
2022-11-04T15:34:47.816Z,79.17
2022-11-04T15:37:14.390Z,79.52
2022-11-04T15:39:43.760Z,79.55
2022-11-04T15:42:40.182Z,79.66
2022-11-04T15:45:22.206Z,79.62
2022-11-04T15:47:48.672Z,79.50
2022-11-04T15:50:19.631Z,79.72
2022-11-04T15:52:47.991Z,79.78
2022-11-04T15:55:19.023Z,80.22
2022-11-04T15:57:45.361Z,79.95
2022-11-04T16:00:14.487Z,80.32
2022-11-04T16:02:47.502Z,80.14
2022-11-04T16:05:17.014Z,80.42
2022-11-04T16:07:44.022Z,80.91
2022-11-04T16:10:32.471Z,80.80
2022-11-04T16:12:58.711Z,80.88
2022-11-04T16:15:31.203Z,81.12
2022-11-04T16:17:57.543Z,81.38
2022-11-04T16:20:24.941Z,81.62
2022-11-04T16:22:55.575Z,81.53
2022-11-04T16:25:22.287Z,81.92
2022-11-04T16:27:48.795Z,81.85
2022-11-04T16:30:19.059Z,82.04
2022-11-04T16:32:48.529Z,81.97
2022-11-04T16:35:19.393Z,82.15
2022-11-04T16:37:45.941Z,82.52
2022-11-04T16:40:12.481Z,82.66
2022-11-04T16:42:38.804Z,82.69
2022-11-04T16:45:05.584Z,82.92
2022-11-04T16:47:32.073Z,82.97
2022-11-04T16:50:01.752Z,82.88
2022-11-04T16:52:28.185Z,83.11
2022-11-04T16:54:57.570Z,83.38
2022-11-04T16:57:24.137Z,83.64
2022-11-04T16:59:50.454Z,83.86
2022-11-04T17:02:22.984Z,84.10
2022-11-04T17:04:49.647Z,84.21
2022-11-04T17:07:16.335Z,84.36
2022-11-04T17:09:43.005Z,84.45
2022-11-04T17:12:10.012Z,84.56
2022-11-04T17:14:36.831Z,84.64
2022-11-04T17:17:04.047Z,84.82
2022-11-04T17:19:34.896Z,84.60
2022-11-04T17:22:02.875Z,84.70
2022-11-04T17:24:29.725Z,84.73
2022-11-04T17:26:56.365Z,84.85
2022-11-04T17:29:22.986Z,84.98
2022-11-04T17:31:49.877Z,85.03
2022-11-04T17:34:16.606Z,84.95
2022-11-04T17:36:43.301Z,85.09
2022-11-04T17:39:10.077Z,85.00
2022-11-04T17:41:55.414Z,85.04
2022-11-04T17:44:22.186Z,85.20
2022-11-04T17:46:49.050Z,85.12
2022-11-04T17:49:22.934Z,85.10
2022-11-04T17:51:50.548Z,85.06
2022-11-04T17:54:17.335Z,85.09
2022-11-04T17:59:36.615Z,85.29
2022-11-04T18:02:03.723Z,85.33
2022-11-04T18:04:30.662Z,85.27
2022-11-04T18:07:02.577Z,85.44
2022-11-04T18:09:30.244Z,85.29
2022-11-04T18:12:15.645Z,85.24
2022-11-04T18:14:42.239Z,84.96
2022-11-04T18:17:08.933Z,85.00
2022-11-04T18:19:35.871Z,85.04
2022-11-04T18:22:02.476Z,85.23
2022-11-04T18:24:29.302Z,85.01
2022-11-04T18:26:58.831Z,85.13
2022-11-04T18:29:25.578Z,85.04
2022-11-04T18:31:52.197Z,85.14
2022-11-04T18:34:19.506Z,85.16
2022-11-04T18:36:47.278Z,85.01
2022-11-04T18:39:17.413Z,85.08
2022-11-04T18:41:44.171Z,85.42
2022-11-04T18:44:15.287Z,85.39
2022-11-04T18:46:42.078Z,85.26
2022-11-04T18:49:09.275Z,85.34
2022-11-04T18:51:35.902Z,85.28
2022-11-04T18:54:06.014Z,85.48
2022-11-04T18:56:32.788Z,85.40
2022-11-04T18:58:59.455Z,85.55
2022-11-04T19:01:27.671Z,85.68
2022-11-04T19:03:56.733Z,85.84
2022-11-04T19:06:26.731Z,85.71
2022-11-04T19:08:57.151Z,85.83
2022-11-04T19:11:30.499Z,85.84
2022-11-04T19:13:58.199Z,85.91
2022-11-04T19:16:25.444Z,85.84
2022-11-04T19:18:53.508Z,85.76
2022-11-04T19:21:21.294Z,85.97
2022-11-04T19:23:47.990Z,86.06
2022-11-04T19:26:19.214Z,85.92
2022-11-04T19:28:48.642Z,86.13
2022-11-04T19:31:17.291Z,86.28
2022-11-04T19:33:44.015Z,86.21
2022-11-04T19:36:11.349Z,86.23
2022-11-04T19:38:38.178Z,86.31
2022-11-04T19:41:05.969Z,86.42
2022-11-04T19:43:32.711Z,86.40
2022-11-04T19:53:12.175Z,86.40
2022-11-04T19:55:38.973Z,86.50
2022-11-04T19:58:05.682Z,86.58
2022-11-04T20:00:32.300Z,86.52
2022-11-04T20:02:59.003Z,86.75
2022-11-04T20:05:26.087Z,86.78
2022-11-04T20:07:54.896Z,86.81
2022-11-04T20:10:22.943Z,86.57
2022-11-04T20:13:08.721Z,86.77
2022-11-04T20:15:38.726Z,86.95
2022-11-04T20:18:08.167Z,86.81
2022-11-04T20:20:37.278Z,86.75
2022-11-04T20:23:05.007Z,86.60
2022-11-04T20:25:31.687Z,86.90
2022-11-04T20:54:15.095Z,87.09
2022-11-04T20:56:45.397Z,87.15
2022-11-04T20:59:13.126Z,87.24
2022-11-04T21:01:40.722Z,87.34
2022-11-04T21:04:08.734Z,87.27
2022-11-04T21:18:24.746Z,87.38
2022-11-04T21:20:54.489Z,87.34
2022-11-04T21:23:21.320Z,87.23
2022-11-04T22:16:38.840Z,87.76
2022-11-04T22:19:06.807Z,87.97
2022-11-04T22:21:33.610Z,87.90
2022-11-04T22:24:29.665Z,88.10
2022-11-04T22:26:56.409Z,88.21
2022-11-04T22:29:23.002Z,87.98
2022-11-04T22:31:49.603Z,87.94
2022-11-04T22:34:16.357Z,87.96
2022-11-04T22:36:42.890Z,87.98
2022-11-04T22:39:16.699Z,88.08
2022-11-04T22:41:43.918Z,88.10
2022-11-04T22:44:10.561Z,88.02
2022-11-04T23:25:13.450Z,89.37
2022-11-04T23:34:53.039Z,89.74
2022-11-04T23:37:19.647Z,89.99
2022-11-04T23:39:47.174Z,90.02
2022-11-04T23:42:40.595Z,90.08
2022-11-04T23:45:25.775Z,90.34
2022-11-04T23:48:16.374Z,90.36
2022-11-04T23:51:01.720Z,90.42
2022-11-04T23:53:47.814Z,90.23
2022-11-04T23:56:33.731Z,90.15
2022-11-04T23:59:19.027Z,90.43
